Time;durP1;ratioP1;P1;durP2;ratioP2;P2;SDS_P1;SDS_P2;PMS_P1;PMS_P2;Temp;Humidity;BMP_temperature;BMP_pressure;BME280_temperature;BME280_humidity;BME280_pressure;Samples;Min_cycle;Max_cycle;Signal;HPM_P1;HPM_P2
2022/01/06 00:00:13;;;;;;;13.97;3.37;;;4.40;99.90;;;;;;5047099;28;20115;-73
2022/01/06 00:02:42;;;;;;;14.40;3.10;;;4.50;99.90;;;;;;5045664;28;20056;-74
2022/01/06 00:05:09;;;;;;;15.60;3.47;;;4.40;99.90;;;;;;5046272;28;20053;-74
2022/01/06 00:07:35;;;;;;;14.50;3.30;;;4.40;99.90;;;;;;5027008;28;20073;-73
2022/01/06 00:10:01;;;;;;;17.97;4.03;;;4.40;99.90;;;;;;5026366;28;20578;-73
2022/01/06 00:12:37;;;;;;;19.37;3.93;;;4.50;99.90;;;;;;5027413;28;20077;-73
2022/01/06 00:15:23;;;;;;;20.57;4.47;;;4.40;99.90;;;;;;5026510;28;20118;-74
2022/01/06 00:25:44;;;;;;;20.10;4.03;;;4.40;99.90;;;;;;5043506;28;20517;-74
2022/01/06 00:28:09;;;;;;;22.63;4.27;;;4.40;99.90;;;;;;5027933;28;20137;-74
2022/01/06 00:30:35;;;;;;;18.77;4.43;;;4.40;99.90;;;;;;5027210;28;20380;-74
2022/01/06 00:33:01;;;;;;;20.57;3.60;;;4.40;99.90;;;;;;5045078;28;20044;-74
2022/01/06 00:35:27;;;;;;;16.50;3.87;;;4.30;99.90;;;;;;5044423;28;20033;-74
2022/01/06 00:37:52;;;;;;;19.33;3.33;;;4.40;99.90;;;;;;5027741;28;20464;-74
2022/01/06 00:40:18;;;;;;;21.03;4.03;;;4.20;99.90;;;;;;5043472;28;20309;-74
2022/01/06 00:42:44;;;;;;;17.90;3.53;;;4.20;99.90;;;;;;5042887;28;20060;-74
2022/01/06 00:45:10;;;;;;;21.50;4.53;;;4.10;99.90;;;;;;5027403;28;20365;-74
2022/01/06 00:47:36;;;;;;;17.70;4.20;;;4.10;99.90;;;;;;5023452;28;20038;-74
2022/01/06 00:50:02;;;;;;;22.07;5.10;;;4.00;99.90;;;;;;5044390;28;20903;-74
2022/01/06 00:52:31;;;;;;;22.73;4.63;;;4.10;99.90;;;;;;5043778;28;20385;-74
2022/01/06 00:54:57;;;;;;;23.13;4.50;;;4.10;99.90;;;;;;5010782;28;20060;-74
2022/01/06 00:57:23;;;;;;;21.73;4.07;;;4.00;99.90;;;;;;5044063;28;20045;-74
2022/01/06 00:59:48;;;;;;;20.13;4.00;;;4.00;99.90;;;;;;5010577;28;20171;-74
2022/01/06 01:02:14;;;;;;;21.97;4.83;;;3.90;99.90;;;;;;5026300;28;20044;-74
2022/01/06 01:04:40;;;;;;;17.07;4.47;;;3.90;99.90;;;;;;5044582;28;20041;-75
2022/01/06 01:07:06;;;;;;;19.30;5.13;;;3.90;99.90;;;;;;5043933;28;20412;-75
2022/01/06 01:09:32;;;;;;;21.23;4.13;;;3.80;99.90;;;;;;5010609;28;20439;-75
2022/01/06 01:12:03;;;;;;;20.27;4.43;;;3.80;99.90;;;;;;5009979;28;20235;-75
2022/01/06 01:14:44;;;;;;;26.67;4.17;;;3.80;99.90;;;;;;5026727;28;20499;-75
2022/01/06 01:17:14;;;;;;;;;;;3.60;99.90;;;;;;5042458;28;20056;-75
2022/01/06 01:19:39;;;;;;;21.48;4.32;;;3.50;99.90;;;;;;5025353;28;19974;-74
2022/01/06 01:22:05;;;;;;;17.50;3.70;;;3.50;99.90;;;;;;5048487;28;20069;-74
2022/01/06 01:24:32;;;;;;;23.07;4.10;;;3.40;99.90;;;;;;5046639;28;20056;-73
2022/01/06 01:27:02;;;;;;;23.63;3.70;;;3.40;99.90;;;;;;5031765;28;20056;-73
2022/01/06 01:29:30;;;;;;;21.50;4.33;;;3.40;99.90;;;;;;5031050;28;20045;-73
2022/01/06 01:31:57;;;;;;;22.87;4.60;;;3.40;99.90;;;;;;5047246;28;20598;-74
2022/01/06 01:34:26;;;;;;;22.63;5.20;;;3.20;99.90;;;;;;5042682;28;20491;-73
2022/01/06 01:36:55;;;;;;;22.10;4.40;;;3.20;99.90;;;;;;5030528;28;20055;-73
2022/01/06 01:39:24;;;;;;;24.20;4.70;;;3.10;99.90;;;;;;5047343;28;20044;-74
2022/01/06 01:41:51;;;;;;;21.87;4.50;;;3.10;99.90;;;;;;5046128;28;20359;-74
2022/01/06 01:44:20;;;;;;;18.00;4.03;;;3.10;99.90;;;;;;5029617;28;20057;-74
2022/01/06 01:46:59;;;;;;;20.60;4.47;;;3.00;99.90;;;;;;5045596;28;20049;-73
2022/01/06 01:51:52;;;;;;;20.00;4.30;;;2.90;99.90;;;;;;5029006;28;20132;-73
2022/01/06 01:54:18;;;;;;;27.17;5.90;;;2.90;99.90;;;;;;5046468;28;20128;-74
2022/01/06 01:56:44;;;;;;;21.30;4.63;;;2.90;99.90;;;;;;5045164;28;20142;-74
2022/01/06 01:59:11;;;;;;;21.53;4.63;;;2.90;99.90;;;;;;5046594;28;20040;-74
2022/01/06 02:01:38;;;;;;;30.07;6.33;;;2.90;99.90;;;;;;5046081;28;20051;-74
2022/01/06 02:04:03;;;;;;;25.07;5.20;;;2.90;99.90;;;;;;5029702;28;20132;-74
2022/01/06 02:06:30;;;;;;;23.77;5.67;;;2.90;99.90;;;;;;5046110;28;20127;-73
2022/01/06 02:08:56;;;;;;;26.70;5.63;;;3.00;99.90;;;;;;5046315;28;20044;-74
2022/01/06 02:11:22;;;;;;;25.43;4.80;;;3.00;99.90;;;;;;5043361;28;20511;-74
2022/01/06 02:13:54;;;;;;;23.63;5.17;;;3.00;99.90;;;;;;5044736;28;20511;-74
2022/01/06 02:16:25;;;;;;;24.50;5.13;;;3.10;99.90;;;;;;5045212;28;20459;-74
2022/01/06 02:18:52;;;;;;;30.43;5.30;;;3.10;99.90;;;;;;5044604;28;20473;-74
2022/01/06 02:21:19;;;;;;;22.17;5.00;;;3.10;99.90;;;;;;5045573;28;20051;-73
2022/01/06 02:23:45;;;;;;;20.10;4.57;;;3.10;99.90;;;;;;5044333;28;20045;-73
2022/01/06 02:26:12;;;;;;;22.77;4.57;;;3.10;99.90;;;;;;5028349;28;20155;-75
2022/01/06 02:28:42;;;;;;;25.43;5.50;;;3.20;99.90;;;;;;5039081;28;20055;-73
2022/01/06 02:31:08;;;;;;;22.42;5.35;;;3.20;99.90;;;;;;5025831;28;20052;-74
2022/01/06 02:33:36;;;;;;;22.33;4.83;;;3.10;99.90;;;;;;5042149;28;20610;-73
2022/01/06 02:36:02;;;;;;;18.40;3.73;;;3.10;99.90;;;;;;5043345;28;20052;-74
2022/01/06 02:38:34;;;;;;;18.70;3.73;;;3.10;99.90;;;;;;5043844;28;20037;-73
2022/01/06 02:41:00;;;;;;;21.70;4.17;;;3.10;99.90;;;;;;5024230;28;20088;-74
2022/01/06 02:43:29;;;;;;;24.90;4.90;;;3.00;99.90;;;;;;5026218;28;20110;-74
2022/01/06 02:45:55;;;;;;;20.20;4.20;;;2.90;99.90;;;;;;5041158;28;20049;-73
2022/01/06 02:48:21;;;;;;;21.07;4.43;;;2.90;99.90;;;;;;5008655;28;20094;-73
2022/01/06 02:50:49;;;;;;;22.80;4.87;;;2.90;99.90;;;;;;5024830;28;20041;-74
2022/01/06 02:53:16;;;;;;;22.50;4.63;;;2.90;99.90;;;;;;5043753;28;20051;-73
2022/01/06 02:55:50;;;;;;;17.00;4.43;;;2.80;99.90;;;;;;5025197;28;20087;-73
2022/01/06 02:58:21;;;;;;;24.03;4.37;;;2.80;99.90;;;;;;5025919;28;20127;-73
2022/01/06 03:00:47;;;;;;;21.58;4.50;;;2.70;99.90;;;;;;5021716;28;20065;-73
2022/01/06 03:03:13;;;;;;;22.33;4.60;;;2.70;99.90;;;;;;5037211;28;20106;-73
2022/01/06 03:05:39;;;;;;;25.63;4.70;;;2.60;99.90;;;;;;5026838;28;20041;-74
2022/01/06 03:08:05;;;;;;;21.60;4.00;;;2.60;99.90;;;;;;5041610;28;20048;-73
2022/01/06 03:10:36;;;;;;;18.43;4.00;;;2.60;99.90;;;;;;5025020;28;20045;-75
2022/01/06 03:13:02;;;;;;;23.25;4.53;;;2.60;99.90;;;;;;5043799;28;20535;-73
2022/01/06 03:15:30;;;;;;;25.03;4.23;;;2.60;99.90;;;;;;5044527;28;20041;-73
2022/01/06 03:17:57;;;;;;;22.07;4.27;;;2.60;99.90;;;;;;5026700;28;20045;-74
2022/01/06 03:20:25;;;;;;;19.27;3.87;;;2.60;99.90;;;;;;5011662;28;20053;-73
2022/01/06 03:22:53;;;;;;;20.10;3.87;;;2.60;99.90;;;;;;5027075;28;20072;-74
2022/01/06 03:25:19;;;;;;;21.67;3.87;;;2.60;99.90;;;;;;5043783;28;20391;-73
2022/01/06 03:27:45;;;;;;;19.07;3.93;;;2.70;99.90;;;;;;5026481;28;20112;-73
2022/01/06 03:30:15;;;;;;;23.37;4.57;;;2.70;99.90;;;;;;5044167;28;20044;-73
2022/01/06 03:32:41;;;;;;;16.03;3.23;;;2.70;99.90;;;;;;5026817;28;20044;-73
2022/01/06 03:35:09;;;;;;;20.10;4.23;;;2.70;99.90;;;;;;5045151;28;20805;-74
2022/01/06 03:37:36;;;;;;;14.13;3.40;;;2.70;99.90;;;;;;5024698;28;20695;-74
2022/01/06 03:40:04;;;;;;;19.77;4.00;;;2.70;99.90;;;;;;5026919;28;20072;-74
2022/01/06 03:42:35;;;;;;;19.60;4.43;;;2.60;99.90;;;;;;5041472;28;20045;-74
2022/01/06 03:45:02;;;;;;;19.60;3.92;;;2.60;99.90;;;;;;5026730;28;20077;-74
2022/01/06 03:47:31;;;;;;;18.10;3.13;;;2.60;99.90;;;;;;5027119;28;20076;-74
2022/01/06 03:49:57;;;;;;;19.97;3.90;;;2.60;99.90;;;;;;5042035;28;20049;-74
2022/01/06 03:52:23;;;;;;;17.33;3.63;;;2.60;99.90;;;;;;5027065;28;20052;-74
2022/01/06 03:54:49;;;;;;;15.00;3.37;;;2.50;99.90;;;;;;5043253;28;20119;-74
2022/01/06 03:57:14;;;;;;;17.63;3.07;;;2.50;99.90;;;;;;5026990;28;20106;-74
2022/01/06 03:59:40;;;;;;;15.90;3.23;;;2.40;99.90;;;;;;5026455;28;20636;-74
2022/01/06 04:02:06;;;;;;;16.33;3.30;;;2.30;99.90;;;;;;5026077;28;20090;-74
2022/01/06 04:04:32;;;;;;;25.23;4.13;;;2.20;99.90;;;;;;5008776;28;20041;-74
2022/01/06 04:06:58;;;;;;;19.47;3.47;;;2.10;99.90;;;;;;5026801;28;20063;-74
2022/01/06 04:09:23;;;;;;;16.33;3.57;;;2.10;99.90;;;;;;4994512;28;20041;-74
2022/01/06 04:11:49;;;;;;;18.17;3.17;;;2.00;99.90;;;;;;5025653;28;20041;-74
2022/01/06 04:14:15;;;;;;;22.60;3.60;;;2.00;99.90;;;;;;5027655;28;20049;-74
2022/01/06 04:16:41;;;;;;;22.43;3.90;;;2.00;99.90;;;;;;5026553;28;20072;-73
2022/01/06 04:19:07;;;;;;;19.03;3.33;;;1.80;99.90;;;;;;5042952;28;21849;-74
2022/01/06 04:21:34;;;;;;;15.03;3.30;;;1.80;99.90;;;;;;5043227;28;20403;-74
2022/01/06 04:24:00;;;;;;;22.10;4.20;;;1.80;99.90;;;;;;5042336;28;20048;-74
2022/01/06 04:26:26;;;;;;;21.40;3.80;;;1.70;99.90;;;;;;5010378;28;20037;-74
2022/01/06 04:28:52;;;;;;;16.90;3.27;;;1.60;99.90;;;;;;5042663;28;20518;-74
2022/01/06 04:31:18;;;;;;;21.67;4.13;;;1.60;99.90;;;;;;5042575;28;20499;-74
2022/01/06 04:33:44;;;;;;;20.43;3.63;;;1.60;99.90;;;;;;5008276;28;20480;-74
2022/01/06 04:36:10;;;;;;;22.13;3.77;;;1.50;99.90;;;;;;5025810;28;20072;-74
2022/01/06 04:38:36;;;;;;;19.50;3.37;;;1.50;99.90;;;;;;5025412;28;20075;-74
2022/01/06 04:41:05;;;;;;;22.23;4.00;;;1.40;99.90;;;;;;5008046;28;20052;-74
2022/01/06 04:43:31;;;;;;;19.43;3.27;;;1.40;99.90;;;;;;5042080;28;20049;-74
2022/01/06 04:46:00;;;;;;;19.17;3.30;;;1.40;99.90;;;;;;5024393;28;20071;-74
2022/01/06 04:48:26;;;;;;;17.83;3.17;;;1.30;99.90;;;;;;5042620;28;20075;-74
2022/01/06 04:50:52;;;;;;;18.33;3.27;;;1.30;99.90;;;;;;5041980;28;20495;-74
2022/01/06 04:53:18;;;;;;;18.73;3.57;;;1.30;99.90;;;;;;5042278;28;20033;-74
2022/01/06 04:55:44;;;;;;;15.73;3.17;;;1.30;99.90;;;;;;5044461;28;20091;-74
2022/01/06 04:58:09;;;;;;;17.53;3.47;;;1.30;99.90;;;;;;4995224;28;20045;-74
2022/01/06 05:00:35;;;;;;;17.40;3.43;;;1.20;99.90;;;;;;5010951;28;20045;-74
2022/01/06 05:03:01;;;;;;;16.50;4.03;;;1.20;99.90;;;;;;4994257;28;20115;-75
2022/01/06 05:05:27;;;;;;;16.07;3.10;;;1.20;99.90;;;;;;5028491;28;20049;-74
2022/01/06 05:07:53;;;;;;;18.97;3.73;;;1.20;99.90;;;;;;5011087;28;20361;-74
2022/01/06 05:10:19;;;;;;;16.53;3.67;;;1.20;99.90;;;;;;5027514;28;20049;-74
2022/01/06 05:12:45;;;;;;;17.67;3.87;;;1.30;99.90;;;;;;5046585;28;20040;-74
2022/01/06 05:15:13;;;;;;;21.70;3.77;;;1.20;99.90;;;;;;5050875;28;20459;-74
2022/01/06 05:17:40;;;;;;;20.37;4.20;;;1.20;99.90;;;;;;5047979;28;20057;-74
2022/01/06 05:20:07;;;;;;;21.03;4.03;;;1.20;99.90;;;;;;5031429;28;20060;-74
2022/01/06 05:22:34;;;;;;;24.67;4.50;;;1.20;99.90;;;;;;5028247;28;20059;-74
2022/01/06 05:25:00;;;;;;;19.23;3.70;;;1.10;99.90;;;;;;5028658;28;20119;-74
2022/01/06 05:27:26;;;;;;;14.80;3.03;;;1.10;99.90;;;;;;5044670;28;20045;-74
2022/01/06 05:29:52;;;;;;;15.90;3.67;;;1.10;99.90;;;;;;5046911;28;20056;-73
2022/01/06 05:32:18;;;;;;;15.57;4.07;;;1.10;99.90;;;;;;5047358;28;20045;-74
2022/01/06 05:34:44;;;;;;;15.73;2.93;;;1.10;99.90;;;;;;5030647;28;20052;-74
2022/01/06 05:37:10;;;;;;;22.57;3.50;;;1.10;99.90;;;;;;5064396;28;20053;-74
2022/01/06 05:39:36;;;;;;;19.50;3.77;;;1.00;99.90;;;;;;5030706;28;20142;-74
2022/01/06 05:42:02;;;;;;;14.87;3.00;;;1.00;99.90;;;;;;5038278;28;20499;-74
2022/01/06 05:44:32;;;;;;;17.83;3.67;;;1.00;99.90;;;;;;5047027;28;20140;-74
2022/01/06 05:46:58;;;;;;;20.00;3.72;;;1.00;99.90;;;;;;5031333;28;20059;-73
2022/01/06 05:49:24;;;;;;;18.37;4.13;;;0.90;99.90;;;;;;5014810;28;20061;-75
2022/01/06 05:51:50;;;;;;;18.17;3.37;;;1.00;99.90;;;;;;5043812;28;20053;-74
2022/01/06 05:54:16;;;;;;;20.60;4.03;;;1.00;99.90;;;;;;5047270;28;20521;-74
2022/01/06 05:56:41;;;;;;;19.70;3.50;;;1.10;99.90;;;;;;5030977;28;20049;-74
2022/01/06 05:59:10;;;;;;;20.77;4.00;;;1.20;99.90;;;;;;5011303;28;20045;-75
2022/01/06 06:01:36;;;;;;;16.73;3.67;;;1.00;99.90;;;;;;5028090;28;20124;-74
2022/01/06 06:04:02;;;;;;;20.17;3.93;;;1.00;99.90;;;;;;5029324;28;20168;-74
2022/01/06 06:06:27;;;;;;;18.63;4.13;;;0.90;99.90;;;;;;5010986;28;20475;-74
2022/01/06 06:08:53;;;;;;;23.33;4.30;;;0.90;99.90;;;;;;5010557;28;20044;-74
2022/01/06 06:11:19;;;;;;;26.60;4.10;;;0.90;99.90;;;;;;5026470;28;20824;-74
2022/01/06 06:13:45;;;;;;;20.73;4.27;;;0.90;99.90;;;;;;5010110;28;20053;-74
2022/01/06 06:16:10;;;;;;;20.20;4.10;;;0.90;99.90;;;;;;5020956;28;20388;-74
2022/01/06 06:18:36;;;;;;;20.03;3.60;;;0.80;99.90;;;;;;5025362;28;20496;-74
2022/01/06 06:21:02;;;;;;;17.10;3.70;;;0.80;99.90;;;;;;5026697;28;20454;-74
2022/01/06 06:23:28;;;;;;;21.93;4.30;;;0.80;99.90;;;;;;5010716;28;20501;-74
2022/01/06 06:25:54;;;;;;;21.70;4.03;;;0.80;99.90;;;;;;5026489;28;20061;-74
2022/01/06 06:28:20;;;;;;;23.27;4.47;;;0.80;99.90;;;;;;5026509;28;20069;-74
2022/01/06 06:30:46;;;;;;;25.63;4.40;;;0.70;99.90;;;;;;5025976;28;20053;-75
2022/01/06 06:33:15;;;;;;;22.30;4.90;;;0.70;99.90;;;;;;5026657;28;20084;-74
2022/01/06 06:35:41;;;;;;;19.10;4.40;;;0.70;99.90;;;;;;4993858;28;20060;-74
2022/01/06 06:38:07;;;;;;;19.93;5.27;;;0.70;99.90;;;;;;5026158;28;20103;-74
2022/01/06 06:40:33;;;;;;;23.30;5.33;;;0.70;99.90;;;;;;5042707;28;20048;-74
2022/01/06 06:43:02;;;;;;;20.47;5.23;;;0.70;99.90;;;;;;5013264;28;20119;-74
2022/01/06 06:45:28;;;;;;;21.53;4.80;;;0.60;99.90;;;;;;5013649;28;20068;-74
2022/01/06 06:47:54;;;;;;;25.47;6.80;;;0.60;99.90;;;;;;5042615;28;20135;-74
2022/01/06 06:50:21;;;;;;;22.07;6.50;;;0.60;99.90;;;;;;4993355;28;20612;-74
2022/01/06 06:52:47;;;;;;;18.20;6.10;;;0.70;99.90;;;;;;5025557;28;20459;-74
2022/01/06 06:55:14;;;;;;;19.00;5.50;;;0.50;99.90;;;;;;5026562;28;20558;-74
2022/01/06 06:57:43;;;;;;;21.97;4.40;;;0.50;99.90;;;;;;5026218;28;20140;-74
2022/01/06 07:00:10;;;;;;;21.33;4.40;;;0.50;99.90;;;;;;5026155;28;20484;-74
2022/01/06 07:02:36;;;;;;;19.90;4.70;;;0.50;99.90;;;;;;5009669;28;20058;-73
2022/01/06 07:05:02;;;;;;;26.73;5.93;;;0.40;99.90;;;;;;5025417;28;20518;-74
2022/01/06 07:07:34;;;;;;;23.30;4.97;;;0.40;99.90;;;;;;5026441;28;20061;-73
2022/01/06 07:10:01;;;;;;;24.40;5.30;;;0.30;99.90;;;;;;5044472;28;20071;-73
2022/01/06 07:12:27;;;;;;;20.33;5.30;;;0.30;99.90;;;;;;5027241;28;20057;-73
2022/01/06 07:14:53;;;;;;;29.83;5.50;;;0.20;99.90;;;;;;5025101;28;20057;-73
2022/01/06 07:17:19;;;;;;;23.03;4.07;;;0.20;99.90;;;;;;5024233;28;20063;-73
2022/01/06 07:19:44;;;;;;;18.40;3.40;;;0.20;99.90;;;;;;5007159;28;20124;-74
2022/01/06 07:22:10;;;;;;;25.90;5.60;;;0.20;99.90;;;;;;5025714;28;20107;-73
2022/01/06 07:24:36;;;;;;;32.40;12.73;;;0.10;99.90;;;;;;5024476;28;20041;-73
2022/01/06 07:27:04;;;;;;;28.43;13.60;;;0.10;99.90;;;;;;5008609;28;20061;-73
2022/01/06 07:29:29;;;;;;;30.13;13.37;;;0.10;99.90;;;;;;5026529;28;20050;-73
2022/01/06 07:31:55;;;;;;;25.27;10.63;;;0.10;99.90;;;;;;5008448;28;20660;-73
2022/01/06 07:34:21;;;;;;;27.63;4.80;;;0.00;99.90;;;;;;5025679;28;20053;-73
2022/01/06 07:36:47;;;;;;;21.97;4.50;;;0.00;99.90;;;;;;5030325;28;20049;-73
2022/01/06 07:39:16;;;;;;;21.03;4.40;;;0.00;99.90;;;;;;5034572;28;20042;-73
2022/01/06 07:41:42;;;;;;;24.30;5.57;;;0.00;99.90;;;;;;5029142;28;20057;-73
2022/01/06 07:44:07;;;;;;;24.77;6.30;;;0.00;99.90;;;;;;5044279;28;20416;-74
2022/01/06 07:46:37;;;;;;;25.60;8.17;;;0.10;99.90;;;;;;5031614;28;20504;-74
2022/01/06 07:49:03;;;;;;;23.65;5.85;;;0.00;99.90;;;;;;5053335;28;20059;-74
2022/01/06 07:51:31;;;;;;;29.00;6.57;;;0.10;99.90;;;;;;5026318;28;20041;-74
2022/01/06 07:54:01;;;;;;;21.87;5.67;;;0.10;99.90;;;;;;5027534;28;20063;-73
2022/01/06 07:56:26;;;;;;;20.23;5.90;;;0.10;99.90;;;;;;5037171;28;20508;-74
2022/01/06 07:58:53;;;;;;;23.07;6.27;;;0.10;99.90;;;;;;5038553;28;20048;-74
2022/01/06 08:01:19;;;;;;;22.83;5.67;;;0.10;99.90;;;;;;5011531;28;20566;-74
2022/01/06 08:03:45;;;;;;;22.73;5.70;;;0.10;99.90;;;;;;5043109;28;20488;-74
2022/01/06 08:06:13;;;;;;;25.40;5.30;;;0.00;99.90;;;;;;5025148;28;20068;-74
2022/01/06 08:08:39;;;;;;;26.33;5.57;;;0.10;99.90;;;;;;5031406;28;20044;-73
2022/01/06 08:11:05;;;;;;;20.57;5.63;;;0.10;99.90;;;;;;5041966;28;20041;-74
2022/01/06 08:13:31;;;;;;;29.60;6.73;;;0.10;99.90;;;;;;5042801;28;20633;-73
2022/01/06 08:15:57;;;;;;;28.60;7.67;;;0.00;99.90;;;;;;5043842;28;20044;-74
2022/01/06 08:18:23;;;;;;;24.47;8.23;;;0.10;99.90;;;;;;5040851;28;20041;-73
2022/01/06 08:20:49;;;;;;;30.27;9.10;;;0.10;99.90;;;;;;5025950;28;20048;-74
2022/01/06 08:23:14;;;;;;;26.00;8.57;;;0.10;99.90;;;;;;5040096;28;20041;-73
2022/01/06 08:25:41;;;;;;;23.53;6.00;;;0.10;99.90;;;;;;5033663;28;20864;-74
2022/01/06 08:28:07;;;;;;;18.57;4.83;;;0.10;99.90;;;;;;5028170;28;20057;-73
2022/01/06 08:30:34;;;;;;;21.47;5.03;;;0.10;99.90;;;;;;5027388;28;20090;-74
2022/01/06 08:33:00;;;;;;;21.97;5.13;;;0.10;99.90;;;;;;5007128;28;20151;-74
2022/01/06 08:35:27;;;;;;;22.47;5.57;;;0.10;99.90;;;;;;5031728;28;20041;-74
2022/01/06 08:37:53;;;;;;;22.57;5.20;;;0.20;99.90;;;;;;5032151;28;20041;-73
2022/01/06 08:40:19;;;;;;;27.10;6.20;;;0.20;99.90;;;;;;5037472;28;20041;-73
2022/01/06 08:42:46;;;;;;;20.93;5.53;;;0.20;99.90;;;;;;5004926;28;20051;-73
2022/01/06 08:45:13;;;;;;;22.47;4.80;;;0.30;99.90;;;;;;5038755;28;20045;-73
2022/01/06 08:47:39;;;;;;;21.73;5.57;;;0.30;99.90;;;;;;5036215;28;20068;-74
2022/01/06 08:50:06;;;;;;;27.13;5.90;;;0.30;99.90;;;;;;5033778;28;20044;-74
2022/01/06 08:52:35;;;;;;;18.47;4.90;;;0.30;99.90;;;;;;5024086;28;20059;-74
2022/01/06 08:55:01;;;;;;;23.00;5.20;;;0.30;99.90;;;;;;5026980;28;20053;-74
2022/01/06 08:57:27;;;;;;;23.43;6.20;;;0.40;99.90;;;;;;5038937;28;20075;-73
2022/01/06 08:59:52;;;;;;;24.43;6.60;;;0.40;99.90;;;;;;5021389;28;20516;-73
2022/01/06 09:02:19;;;;;;;21.57;6.90;;;0.50;99.90;;;;;;5020620;28;20254;-74
2022/01/06 09:04:44;;;;;;;28.03;7.10;;;0.50;99.90;;;;;;5019984;28;20080;-74
2022/01/06 09:07:10;;;;;;;21.87;6.77;;;0.50;99.90;;;;;;5023727;28;20503;-74
2022/01/06 09:09:39;;;;;;;24.77;7.57;;;0.60;99.90;;;;;;5020863;28;20080;-74
2022/01/06 09:12:06;;;;;;;24.07;5.87;;;0.60;99.90;;;;;;5016680;28;20088;-74
2022/01/06 09:14:35;;;;;;;22.33;6.20;;;0.70;99.90;;;;;;5022221;28;20056;-74
2022/01/06 09:17:02;;;;;;;22.90;4.90;;;0.70;99.90;;;;;;5022610;28;20032;-74
2022/01/06 09:19:28;;;;;;;23.77;4.97;;;0.70;99.90;;;;;;5021615;28;20049;-74
2022/01/06 09:21:54;;;;;;;23.47;4.90;;;0.80;99.90;;;;;;5017170;28;20976;-74
2022/01/06 09:24:20;;;;;;;27.10;5.10;;;0.80;99.90;;;;;;5019019;28;20083;-74
2022/01/06 09:26:46;;;;;;;23.23;5.40;;;0.90;99.90;;;;;;5015851;28;20540;-74
2022/01/06 09:29:13;;;;;;;21.60;5.13;;;0.90;99.90;;;;;;5038279;28;20092;-74
2022/01/06 09:31:41;;;;;;;27.23;5.73;;;0.90;99.90;;;;;;5034568;28;20037;-74
2022/01/06 09:34:08;;;;;;;22.73;5.93;;;1.00;99.90;;;;;;5038703;28;20114;-74
2022/01/06 09:36:34;;;;;;;23.60;6.10;;;1.00;99.90;;;;;;5015935;28;20056;-74
2022/01/06 09:39:03;;;;;;;23.40;5.77;;;1.10;99.90;;;;;;5033749;28;20056;-74
2022/01/06 09:41:30;;;;;;;23.23;5.67;;;1.10;99.90;;;;;;5032452;28;20044;-74
2022/01/06 09:44:00;;;;;;;23.63;4.83;;;1.20;99.90;;;;;;5020631;28;20610;-74
2022/01/06 09:46:27;;;;;;;26.17;6.72;;;1.40;99.90;;;;;;5017159;28;20056;-75
2022/01/06 09:48:59;;;;;;;34.47;8.23;;;1.40;99.90;;;;;;5035447;28;20507;-74
2022/01/06 09:51:28;;;;;;;21.53;6.50;;;1.50;99.90;;;;;;5025039;28;20045;-74
2022/01/06 09:53:57;;;;;;;21.97;6.07;;;1.50;99.90;;;;;;5034054;28;20208;-74
2022/01/06 09:56:24;;;;;;;23.40;5.37;;;1.70;99.90;;;;;;5034267;28;20040;-74
2022/01/06 09:58:50;;;;;;;22.63;5.17;;;1.70;99.90;;;;;;5033465;28;20121;-74
2022/01/06 10:01:15;;;;;;;25.50;6.00;;;1.80;99.90;;;;;;5008221;28;20719;-74
2022/01/06 10:03:45;;;;;;;23.87;6.00;;;1.80;99.90;;;;;;5034444;28;20056;-74
2022/01/06 10:06:16;;;;;;;19.88;4.88;;;1.90;99.90;;;;;;5036043;28;20504;-74
2022/01/06 10:08:50;;;;;;;25.57;5.87;;;2.00;99.90;;;;;;5040422;28;20183;-75
2022/01/06 10:11:19;;;;;;;24.00;5.87;;;2.10;99.90;;;;;;5044259;28;20539;-75
2022/01/06 10:13:55;;;;;;;23.43;6.60;;;2.10;99.90;;;;;;5027388;28;20060;-74
2022/01/06 10:16:21;;;;;;;24.40;6.73;;;2.20;99.90;;;;;;5027820;28;20117;-74
2022/01/06 10:18:54;;;;;;;23.57;7.10;;;2.30;99.90;;;;;;5012537;28;20055;-75
2022/01/06 10:21:20;;;;;;;20.73;6.37;;;2.30;99.90;;;;;;5028234;28;20048;-75
2022/01/06 10:24:01;;;;;;;23.47;5.53;;;2.30;99.90;;;;;;5042570;28;20045;-74
2022/01/06 10:26:27;;;;;;;23.20;6.60;;;2.50;99.90;;;;;;5045195;28;20052;-74
2022/01/06 10:28:53;;;;;;;23.83;6.00;;;2.50;99.90;;;;;;5022670;28;20106;-74
2022/01/06 10:31:30;;;;;;;24.03;5.50;;;2.60;99.90;;;;;;5028345;28;20145;-74
2022/01/06 10:33:57;;;;;;;21.37;5.07;;;2.70;99.90;;;;;;5042843;28;20044;-75
2022/01/06 10:36:28;;;;;;;28.03;6.33;;;2.70;99.90;;;;;;5023055;28;20041;-75
2022/01/06 10:38:56;;;;;;;18.17;5.40;;;2.90;99.90;;;;;;5042206;28;20105;-75
2022/01/06 10:41:22;;;;;;;22.07;4.77;;;2.90;99.90;;;;;;5044599;28;20060;-75
2022/01/06 10:43:52;;;;;;;22.80;5.57;;;3.00;99.90;;;;;;5039767;28;20068;-75
2022/01/06 10:46:42;;;;;;;24.23;5.65;;;3.10;99.90;;;;;;5039678;28;20073;-75
2022/01/06 10:49:14;;;;;;;19.90;4.95;;;3.20;99.90;;;;;;5025462;28;20056;-75
2022/01/06 10:51:41;;;;;;;20.63;4.80;;;3.30;99.90;;;;;;5042098;28;20052;-75
2022/01/06 10:54:23;;;;;;;24.93;5.60;;;3.30;99.90;;;;;;5043046;28;20677;-75
2022/01/06 10:57:02;;;;;;;24.57;5.10;;;3.40;99.90;;;;;;5044394;28;20061;-75
2022/01/06 10:59:32;;;;;;;22.10;5.22;;;3.50;99.90;;;;;;5028275;28;20671;-74
2022/01/06 11:02:03;;;;;;;17.67;5.00;;;3.50;99.90;;;;;;5042351;28;20049;-75
2022/01/06 11:04:32;;;;;;;18.75;4.50;;;3.60;99.90;;;;;;5039953;28;20080;-75
2022/01/06 11:07:01;;;;;;;25.47;5.50;;;3.70;99.90;;;;;;5043959;28;20076;-75
2022/01/06 11:09:29;;;;;;;24.90;4.50;;;3.80;99.90;;;;;;5039450;28;20140;-75
2022/01/06 11:14:26;;;;;;;19.13;4.72;;;3.90;99.90;;;;;;5039597;28;20051;-75
2022/01/06 11:16:52;;;;;;;18.93;4.70;;;3.90;99.90;;;;;;5035808;28;20041;-75
2022/01/06 11:19:21;;;;;;;23.27;5.00;;;4.00;99.90;;;;;;5022857;28;20042;-75
2022/01/06 11:21:49;;;;;;;17.07;4.27;;;4.10;99.90;;;;;;5037494;28;20545;-75
2022/01/06 11:24:17;;;;;;;16.07;3.80;;;4.20;99.90;;;;;;5037626;28;20117;-75
2022/01/06 11:26:56;;;;;;;15.93;4.03;;;4.30;99.90;;;;;;5041341;28;20128;-75
2022/01/06 11:29:32;;;;;;;24.90;5.40;;;4.30;99.90;;;;;;5026454;28;20555;-75
2022/01/06 11:31:59;;;;;;;17.67;4.30;;;4.40;99.90;;;;;;5055165;28;20507;-75
2022/01/06 11:34:27;;;;;;;19.67;4.87;;;4.50;99.90;;;;;;5026306;28;20188;-75
2022/01/06 11:36:56;;;;;;;23.37;4.30;;;4.50;99.90;;;;;;5037843;28;20055;-75
2022/01/06 11:39:27;;;;;;;12.87;3.53;;;4.60;99.90;;;;;;5039899;28;20044;-75
2022/01/06 11:41:59;;;;;;;24.93;4.17;;;4.70;99.90;;;;;;5032156;28;20047;-75
2022/01/06 11:44:32;;;;;;;19.37;4.07;;;4.70;99.90;;;;;;5024707;28;20052;-76
2022/01/06 11:47:01;;;;;;;20.23;4.03;;;4.80;99.90;;;;;;5030677;28;20096;-75
2022/01/06 11:49:39;;;;;;;17.13;4.03;;;5.00;99.90;;;;;;5030049;28;20128;-75
2022/01/06 11:52:17;;;;;;;19.07;3.50;;;4.90;99.90;;;;;;5026676;28;20065;-75
2022/01/06 11:54:53;;;;;;;18.23;3.80;;;5.00;99.90;;;;;;5038179;28;20045;-75
2022/01/06 11:57:37;;;;;;;13.60;4.70;;;5.00;99.90;;;;;;5009225;28;20509;-75
2022/01/06 12:00:19;;;;;;;17.43;4.20;;;5.10;99.90;;;;;;5026260;28;20492;-75
2022/01/06 12:03:01;;;;;;;15.17;3.83;;;5.10;99.90;;;;;;5029267;28;20635;-75
2022/01/06 12:05:44;;;;;;;19.53;4.03;;;5.20;99.90;;;;;;5023900;28;20072;-75
2022/01/06 12:08:10;;;;;;;22.70;3.80;;;5.20;99.90;;;;;;5036267;28;20072;-75
2022/01/06 12:10:50;;;;;;;17.53;3.77;;;5.20;99.90;;;;;;5015535;28;20045;-75
2022/01/06 12:13:17;;;;;;;13.60;3.70;;;5.30;99.90;;;;;;5023095;28;20057;-76
2022/01/06 12:15:52;;;;;;;21.87;4.83;;;5.30;99.90;;;;;;5030143;28;20829;-75
2022/01/06 12:18:20;;;;;;;21.73;5.57;;;5.30;99.90;;;;;;5039375;28;20081;-75
2022/01/06 12:20:48;;;;;;;18.60;4.27;;;5.40;99.90;;;;;;5025548;28;20791;-75
2022/01/06 12:23:15;;;;;;;18.83;4.60;;;5.30;99.90;;;;;;5040707;28;20080;-75
2022/01/06 12:25:41;;;;;;;20.23;4.80;;;5.40;99.90;;;;;;5014132;28;20051;-75
2022/01/06 12:28:11;;;;;;;15.63;4.10;;;5.40;99.90;;;;;;5001284;28;20088;-75
2022/01/06 12:30:40;;;;;;;18.70;4.97;;;5.40;99.90;;;;;;5008466;28;20212;-75
2022/01/06 12:33:09;;;;;;;17.40;5.17;;;5.50;99.90;;;;;;5023245;28;20121;-75
2022/01/06 12:35:41;;;;;;;28.23;6.63;;;5.50;99.90;;;;;;5024557;28;20715;-75
2022/01/06 12:38:08;;;;;;;21.37;6.07;;;5.50;99.90;;;;;;5025435;28;20055;-75
2022/01/06 12:40:44;;;;;;;21.53;6.77;;;5.50;99.90;;;;;;5027825;28;20104;-75
2022/01/06 12:43:24;;;;;;;24.50;6.87;;;5.60;99.90;;;;;;5044370;28;20048;-75
2022/01/06 12:46:10;;;;;;;21.85;6.43;;;5.60;99.90;;;;;;5043531;28;20570;-75
2022/01/06 12:48:40;;;;;;;21.57;6.73;;;5.60;99.90;;;;;;5037898;28;20053;-76
2022/01/06 12:51:08;;;;;;;24.02;6.00;;;5.60;99.90;;;;;;5042237;28;20048;-76
2022/01/06 12:53:41;;;;;;;18.55;5.00;;;5.60;99.90;;;;;;5043334;28;20167;-76
2022/01/06 12:56:07;;;;;;;17.27;5.40;;;5.70;99.90;;;;;;5041858;28;20056;-75
2022/01/06 12:58:35;;;;;;;19.70;6.55;;;5.70;99.90;;;;;;5026103;28;20068;-76
2022/01/06 13:01:06;;;;;;;18.73;4.73;;;5.70;99.90;;;;;;5041257;28;20090;-76
2022/01/06 13:03:37;;;;;;;19.30;5.23;;;5.70;99.90;;;;;;5026608;28;20052;-75